Time;durP1;ratioP1;P1;durP2;ratioP2;P2;SDS_P1;SDS_P2;PMS_P1;PMS_P2;Temp;Humidity;BMP_temperature;BMP_pressure;BME280_temperature;BME280_humidity;BME280_pressure;Samples;Min_cycle;Max_cycle;Signal;HPM_P1;HPM_P2
2022/11/12 00:02:21;;;;;;;;;;;;;;;25.57;58.21;98414.45;587039;241;44671;-74
2022/11/12 00:05:07;;;;;;;;;;;;;;;25.57;57.59;98411.77;587284;241;41785;-75
2022/11/12 00:07:53;;;;;;;;;;;;;;;25.56;58.13;98418.20;587312;241;41113;-73
2022/11/12 00:10:39;;;;;;;;;;;;;;;25.55;58.55;98417.41;587286;241;40143;-74
2022/11/12 00:13:24;;;;;;;;;;;;;;;25.54;57.56;98417.69;587271;241;44622;-74
2022/11/12 00:16:10;;;;;;;;;;;;;;;25.55;57.58;98416.60;587272;241;39264;-68
2022/11/12 00:18:55;;;;;;;;;;;;;;;25.54;57.98;98425.77;587266;241;40429;-67
2022/11/12 00:21:41;;;;;;;;;;;;;;;25.53;57.68;98416.05;587231;239;44639;-68
2022/11/12 00:24:26;;;;;;;;;;;;;;;25.52;57.37;98419.83;587308;240;39205;-68
2022/11/12 00:27:12;;;;;;;;;;;;;;;25.52;57.18;98425.21;587301;241;40338;-67
2022/11/12 00:29:58;;;;;;;;;;;;;;;25.52;57.70;98417.14;587265;241;44539;-67
2022/11/12 00:32:43;;;;;;;;;;;;;;;25.52;57.77;98411.75;587290;241;39168;-68
2022/11/12 00:35:31;;;;;;;;;;;;;;;25.51;57.19;98412.81;587243;239;44635;-68
2022/11/12 00:38:16;;;;;;;;;;;;;;;25.51;57.48;98420.89;587222;241;40327;-68
2022/11/12 00:41:02;;;;;;;;;;;;;;;25.49;57.02;98414.98;587275;241;39081;-68
2022/11/12 00:43:47;;;;;;;;;;;;;;;25.49;57.92;98417.67;587234;239;44603;-74
2022/11/12 00:46:33;;;;;;;;;;;;;;;25.47;56.76;98413.34;587273;241;40070;-75
2022/11/12 00:49:19;;;;;;;;;;;;;;;25.47;57.97;98410.66;587268;241;39088;-74
2022/11/12 00:52:04;;;;;;;;;;;;;;;25.47;57.22;98415.23;587274;241;40333;-74
2022/11/12 00:54:50;;;;;;;;;;;;;;;25.48;56.80;98416.84;587253;241;40725;-75
2022/11/12 00:57:36;;;;;;;;;;;;;;;25.45;57.74;98412.83;587302;241;39818;-68
2022/11/12 01:00:21;;;;;;;;;;;;;;;25.45;57.95;98407.45;587263;241;44766;-67
2022/11/12 01:03:07;;;;;;;;;;;;;;;25.44;57.49;98408.50;587229;241;40467;-74
2022/11/12 01:05:52;;;;;;;;;;;;;;;25.44;58.55;98402.31;587279;241;39098;-74
2022/11/12 01:08:38;;;;;;;;;;;;;;;25.44;57.98;98399.63;587019;239;44988;-74
2022/11/12 01:11:26;;;;;;;;;;;;;;;25.44;58.17;98405.81;587229;241;44637;-74
2022/11/12 01:14:12;;;;;;;;;;;;;;;25.42;58.25;98407.15;587264;241;41116;-75
2022/11/12 01:16:57;;;;;;;;;;;;;;;25.42;57.84;98407.15;587237;241;44471;-76
2022/11/12 01:19:43;;;;;;;;;;;;;;;25.41;57.87;98400.96;587258;241;40328;-74
2022/11/12 01:22:29;;;;;;;;;;;;;;;25.40;57.73;98393.98;587242;241;40965;-75
2022/11/12 01:25:14;;;;;;;;;;;;;;;25.39;58.36;98389.65;587286;241;40645;-74
2022/11/12 01:28:00;;;;;;;;;;;;;;;25.39;57.91;98397.72;587303;241;40337;-68
2022/11/12 01:30:45;;;;;;;;;;;;;;;25.38;57.80;98396.12;587264;241;39119;-68
2022/11/12 01:33:31;;;;;;;;;;;;;;;25.37;58.22;98394.52;587253;241;43156;-67
2022/11/12 01:36:18;;;;;;;;;;;;;;;25.38;58.23;98389.94;587228;241;40422;-68
2022/11/12 01:39:05;;;;;;;;;;;;;;;25.36;57.85;98390.19;587262;241;39117;-68
2022/11/12 01:41:51;;;;;;;;;;;;;;;25.35;58.21;98388.58;587253;241;43413;-67
2022/11/12 01:44:38;;;;;;;;;;;;;;;25.35;58.74;98388.58;587205;241;40435;-68
2022/11/12 01:47:28;;;;;;;;;;;;;;;25.34;57.86;98384.25;587261;241;39116;-68
2022/11/12 01:50:15;;;;;;;;;;;;;;;25.35;58.49;98393.97;587247;241;44622;-68
2022/11/12 01:53:05;;;;;;;;;;;;;;;25.34;57.75;98383.45;587251;241;44500;-68
2022/11/12 01:55:52;;;;;;;;;;;;;;;25.32;59.08;98389.12;587255;241;39246;-68
2022/11/12 01:58:38;;;;;;;;;;;;;;;25.32;58.26;98389.12;587296;241;43360;-69
2022/11/12 02:01:24;;;;;;;;;;;;;;;25.31;58.10;98390.17;587279;241;40423;-69
2022/11/12 02:04:09;;;;;;;;;;;;;;;25.31;58.02;98378.61;587272;241;39141;-69
2022/11/12 02:06:56;;;;;;;;;;;;;;;25.30;58.26;98383.19;587265;241;40289;-69
2022/11/12 02:09:41;;;;;;;;;;;;;;;25.30;59.00;98383.19;587287;241;41698;-68
2022/11/12 02:15:31;;;;;;;;;;;;;;;25.28;59.11;98385.33;587000;241;44518;-68
2022/11/12 02:18:16;;;;;;;;;;;;;;;25.27;58.89;98381.03;587197;239;43492;-69
2022/11/12 02:21:03;;;;;;;;;;;;;;;25.26;58.47;98376.70;587246;241;39758;-74
2022/11/12 02:24:03;;;;;;;;;;;;;;;25.25;59.17;98383.97;587216;239;40522;-75
2022/11/12 02:26:50;;;;;;;;;;;;;;;25.25;58.67;98377.79;587235;240;40459;-75
2022/11/12 02:29:44;;;;;;;;;;;;;;;25.24;59.79;98382.37;587269;241;39184;-75
2022/11/12 02:32:22;;;;;;;;;;;;;;;25.24;58.81;98381.56;587251;241;40302;-75
2022/11/12 02:35:08;;;;;;;;;;;;;;;25.22;59.16;98387.20;587281;241;40329;-75
2022/11/12 02:37:54;;;;;;;;;;;;;;;25.22;58.77;98384.51;587329;241;38959;-75
2022/11/12 02:40:41;;;;;;;;;;;;;;;25.21;58.81;98385.59;587258;241;41661;-76
2022/11/12 02:43:27;;;;;;;;;;;;;;;25.22;57.80;98386.39;587222;241;39352;-75
2022/11/12 02:46:13;;;;;;;;;;;;;;;25.22;59.82;98389.09;587239;241;39359;-75
2022/11/12 02:48:58;;;;;;;;;;;;;;;25.20;58.83;98383.16;587246;241;40627;-74
2022/11/12 02:51:44;;;;;;;;;;;;;;;25.21;59.49;98392.86;587239;240;40327;-75
2022/11/12 02:54:29;;;;;;;;;;;;;;;25.18;59.30;98390.67;587265;241;41183;-75
2022/11/12 02:57:15;;;;;;;;;;;;;;;25.18;59.61;98387.98;587242;239;40294;-75
2022/11/12 03:00:01;;;;;;;;;;;;;;;25.18;58.83;98390.67;587221;241;43285;-75
2022/11/12 03:02:57;;;;;;;;;;;;;;;25.17;58.61;98386.38;587267;241;39060;-75
2022/11/12 03:05:34;;;;;;;;;;;;;;;25.16;58.83;98379.39;587327;241;41868;-75
2022/11/12 03:08:19;;;;;;;;;;;;;;;25.16;59.75;98385.58;587268;241;40425;-75
2022/11/12 03:11:06;;;;;;;;;;;;;;;25.15;58.54;98383.94;587261;241;39072;-75
2022/11/12 03:13:51;;;;;;;;;;;;;;;25.16;59.39;98387.47;587236;241;40285;-75
2022/11/12 03:16:37;;;;;;;;;;;;;;;25.14;59.89;98379.61;587207;241;43006;-68
2022/11/12 03:19:23;;;;;;;;;;;;;;;25.13;58.92;98386.08;587254;241;41373;-68
2022/11/12 03:22:08;;;;;;;;;;;;;;;25.13;57.89;98387.97;587238;241;40275;-68
2022/11/12 03:24:54;;;;;;;;;;;;;;;25.13;58.76;98382.59;587194;241;40329;-67
2022/11/12 03:27:39;;;;;;;;;;;;;;;25.13;58.61;98377.20;587248;241;39117;-68
2022/11/12 03:30:26;;;;;;;;;;;;;;;25.11;58.03;98379.34;587259;241;43494;-68
2022/11/12 03:33:14;;;;;;;;;;;;;;;25.11;58.89;98385.53;587265;241;39878;-68
2022/11/12 03:35:59;;;;;;;;;;;;;;;25.11;57.24;98384.73;587070;241;38879;-68
2022/11/12 03:38:44;;;;;;;;;;;;;;;25.10;58.70;98380.40;587310;241;44222;-68
2022/11/12 03:41:30;;;;;;;;;;;;;;;25.09;59.25;98384.98;587186;241;40437;-68
2022/11/12 03:44:16;;;;;;;;;;;;;;;25.09;59.94;98376.10;590917;240;41082;-68
2022/11/12 03:47:02;;;;;;;;;;;;;;;25.08;59.16;98379.88;591010;240;39985;-68
2022/11/12 03:49:47;;;;;;;;;;;;;;;25.07;59.56;98378.24;590948;240;44310;-68
2022/11/12 03:52:33;;;;;;;;;;;;;;;25.06;59.88;98384.70;591011;240;38857;-69
2022/11/12 03:55:20;;;;;;;;;;;;;;;25.05;59.86;98383.10;591021;240;38908;-75
2022/11/12 03:58:05;;;;;;;;;;;;;;;25.04;59.15;98384.95;590935;240;40320;-75
2022/11/12 04:00:51;;;;;;;;;;;;;;;25.05;58.33;98393.86;590995;240;39255;-75
2022/11/12 04:03:37;;;;;;;;;;;;;;;25.05;59.48;98391.17;590700;240;40085;-75
2022/11/12 04:09:26;;;;;;;;;;;;;;;25.02;59.15;98387.93;590992;240;41171;-75
2022/11/12 04:15:15;;;;;;;;;;;;;;;25.00;57.14;98386.58;590376;240;40328;-74
2022/11/12 04:26:21;;;;;;;;;;;;;;;24.98;57.73;98392.20;590967;240;40408;-75
2022/11/12 04:26:55;;;;;;;;;;;;;;;24.99;59.44;98390.31;591020;240;39109;-75
2022/11/12 04:32:50;;;;;;;;;;;;;;;24.96;60.36;98399.75;591008;240;44631;-75
2022/11/12 04:35:35;;;;;;;;;;;;;;;24.95;58.94;98390.05;591004;240;39891;-75
2022/11/12 04:38:21;;;;;;;;;;;;;;;24.95;59.99;98387.36;590964;240;44647;-74
2022/11/12 04:47:14;;;;;;;;;;;;;;;24.93;59.77;98386.80;591011;240;40312;-74
2022/11/12 04:50:03;;;;;;;;;;;;;;;24.91;59.42;98380.91;590996;240;41998;-75
2022/11/12 04:52:48;;;;;;;;;;;;;;;24.90;59.92;98400.78;591010;240;39144;-75
2022/11/12 04:55:34;;;;;;;;;;;;;;;24.90;59.79;98394.59;590997;240;44669;-74
2022/11/12 04:58:20;;;;;;;;;;;;;;;24.89;61.07;98401.86;590749;240;44525;-74
2022/11/12 05:01:05;;;;;;;;;;;;;;;24.88;60.02;98405.63;590778;240;39318;-75
2022/11/12 05:03:51;;;;;;;;;;;;;;;24.87;60.38;98416.64;591031;240;40407;-75
2022/11/12 05:06:52;;;;;;;;;;;;;;;24.86;60.39;98426.59;590610;240;44679;-75
2022/11/12 05:09:38;;;;;;;;;;;;;;;24.86;60.31;98410.45;590953;240;41130;-74
2022/11/12 05:12:24;;;;;;;;;;;;;;;24.86;61.19;98405.08;590971;240;40407;-74
2022/11/12 05:15:10;;;;;;;;;;;;;;;24.84;59.61;98407.22;590934;238;40594;-74
2022/11/12 05:17:56;;;;;;;;;;;;;;;24.84;59.73;98406.41;590832;240;39697;-74
2022/11/12 05:20:42;;;;;;;;;;;;;;;24.84;61.20;98415.28;590861;240;40329;-75
2022/11/12 05:23:27;;;;;;;;;;;;;;;24.82;60.15;98417.41;590939;240;44336;-68
2022/11/12 05:26:13;;;;;;;;;;;;;;;24.82;61.00;98414.73;591008;240;39721;-68
2022/11/12 05:28:59;;;;;;;;;;;;;;;24.83;60.69;98426.28;590966;240;40116;-75
2022/11/12 05:31:45;;;;;;;;;;;;;;;24.82;61.17;98430.86;590989;240;40319;-74
2022/11/12 05:34:31;;;;;;;;;;;;;;;24.80;60.98;98436.52;591004;240;40225;-75
2022/11/12 05:37:16;;;;;;;;;;;;;;;24.80;60.47;98427.64;591025;240;40584;-75
2022/11/12 05:40:02;;;;;;;;;;;;;;;24.79;59.81;98420.63;590973;240;43007;-74
2022/11/12 05:42:48;;;;;;;;;;;;;;;24.79;59.87;98415.25;590919;238;40016;-74
2022/11/12 05:45:33;;;;;;;;;;;;;;;24.78;60.42;98419.02;590968;240;43394;-74
2022/11/12 05:48:19;;;;;;;;;;;;;;;24.77;59.85;98422.77;590968;240;44334;-74
2022/11/12 05:51:05;;;;;;;;;;;;;;;24.77;61.26;98422.77;590915;240;39149;-75
2022/11/12 05:53:51;;;;;;;;;;;;;;;24.76;60.05;98426.53;591038;240;40328;-75
2022/11/12 05:56:36;;;;;;;;;;;;;;;24.75;60.90;98431.11;591018;240;44490;-74
2022/11/12 05:59:23;;;;;;;;;;;;;;;24.75;61.71;98435.69;590967;240;39289;-74
2022/11/12 06:02:09;;;;;;;;;;;;;;;24.75;61.44;98446.44;590944;238;44649;-75
2022/11/12 06:04:54;;;;;;;;;;;;;;;24.74;60.26;98450.17;587118;240;42030;-74
2022/11/12 06:07:40;;;;;;;;;;;;;;;24.74;61.47;98450.17;590976;240;38999;-74
2022/11/12 06:10:26;;;;;;;;;;;;;;;24.73;59.91;98452.06;587031;240;40427;-74
2022/11/12 06:13:12;;;;;;;;;;;;;;;24.71;59.28;98450.70;590018;240;44383;-74
2022/11/12 06:15:58;;;;;;;;;;;;;;;24.70;60.13;98460.65;590058;240;39158;-74
2022/11/12 06:18:43;;;;;;;;;;;;;;;24.70;60.73;98459.84;590438;240;40553;-75
2022/11/12 06:21:29;;;;;;;;;;;;;;;24.71;61.09;98466.83;590984;240;40088;-73
2022/11/12 06:24:15;;;;;;;;;;;;;;;24.70;63.13;98467.91;591039;240;39053;-75
2022/11/12 06:27:00;;;;;;;;;;;;;;;24.68;59.29;98470.84;591012;240;40527;-75
2022/11/12 06:29:46;;;;;;;;;;;;;;;24.68;60.99;98468.16;590959;240;40642;-75
2022/11/12 06:32:32;;;;;;;;;;;;;;;24.69;60.90;98469.80;590970;240;39137;-75
2022/11/12 06:35:18;;;;;;;;;;;;;;;24.70;61.79;98478.66;590962;240;40324;-75
2022/11/12 06:38:04;;;;;;;;;;;;;;;24.69;61.84;98474.34;590926;240;40422;-75
2022/11/12 06:40:51;;;;;;;;;;;;;;;24.67;63.06;98471.92;590906;238;40009;-68
2022/11/12 06:43:37;;;;;;;;;;;;;;;24.68;60.70;98470.84;590924;240;40599;-67
2022/11/12 06:46:24;;;;;;;;;;;;;;;24.68;62.10;98472.73;590930;240;40434;-68
2022/11/12 06:49:09;;;;;;;;;;;;;;;24.66;60.74;98472.98;590960;240;39869;-68
2022/11/12 06:51:55;;;;;;;;;;;;;;;24.67;61.70;98476.50;590868;240;43084;-68
2022/11/12 06:54:41;;;;;;;;;;;;;;;24.68;61.29;98486.17;590979;240;40427;-68
2022/11/12 06:57:26;;;;;;;;;;;;;;;24.68;60.61;98486.97;590975;240;39494;-68
2022/11/12 07:00:12;;;;;;;;;;;;;;;24.68;62.28;98483.48;590949;238;40648;-68
2022/11/12 07:02:59;;;;;;;;;;;;;;;24.68;61.93;98494.23;590920;240;40347;-67
2022/11/12 07:05:45;;;;;;;;;;;;;;;24.66;61.90;98478.35;590852;240;40027;-68
2022/11/12 07:08:30;;;;;;;;;;;;;;;24.67;60.06;98488.05;590992;240;40344;-68
2022/11/12 07:11:17;;;;;;;;;;;;;;;24.68;61.57;98491.55;590465;240;40427;-68
2022/11/12 07:14:04;;;;;;;;;;;;;;;24.68;61.30;98495.04;590838;240;39856;-69
2022/11/12 07:16:49;;;;;;;;;;;;;;;24.69;61.75;98506.59;590909;240;40300;-69
2022/11/12 07:19:35;;;;;;;;;;;;;;;24.69;62.71;98502.05;590720;240;44485;-68
2022/11/12 07:22:21;;;;;;;;;;;;;;;24.70;61.37;98497.48;590927;240;40980;-73
2022/11/12 07:25:06;;;;;;;;;;;;;;;24.64;57.36;98485.09;590959;240;43273;-72
2022/11/12 07:27:53;;;;;;;;;;;;;;;24.63;59.11;98481.56;590974;240;40320;-68
2022/11/12 07:30:39;;;;;;;;;;;;;;;24.65;60.21;98484.00;590945;240;39129;-68
2022/11/12 07:33:25;;;;;;;;;;;;;;;24.64;57.65;98485.09;590957;240;44662;-68
2022/11/12 07:36:13;;;;;;;;;;;;;;;24.64;56.05;98477.83;590902;240;40535;-67
2022/11/12 07:38:59;;;;;;;;;;;;;;;24.65;60.60;98484.00;590720;238;39168;-68
2022/11/12 07:41:44;;;;;;;;;;;;;;;24.66;61.82;98482.92;590120;240;43379;-69
2022/11/12 07:44:30;;;;;;;;;;;;;;;24.65;62.05;98473.25;590955;240;40179;-76
2022/11/12 07:47:16;;;;;;;;;;;;;;;24.64;60.75;98477.02;590948;240;39249;-74
2022/11/12 07:50:01;;;;;;;;;;;;;;;24.66;60.66;98480.23;590973;240;40330;-74
2022/11/12 07:52:47;;;;;;;;;;;;;;;24.65;62.32;98479.43;590955;240;44828;-75
2022/11/12 07:55:33;;;;;;;;;;;;;;;24.65;60.57;98473.25;591021;240;39743;-74
2022/11/12 07:58:18;;;;;;;;;;;;;;;24.65;59.80;98473.25;591013;240;44855;-73
2022/11/12 08:01:12;;;;;;;;;;;;;;;24.65;62.36;98474.05;590992;239;40372;-75
2022/11/12 08:03:58;;;;;;;;;;;;;;;24.66;61.52;98472.98;590995;240;39133;-73
2022/11/12 08:06:43;;;;;;;;;;;;;;;24.66;59.99;98475.66;590989;240;43592;-74
2022/11/12 08:09:29;;;;;;;;;;;;;;;24.67;60.91;98474.61;591006;240;44176;-73
2022/11/12 08:12:15;;;;;;;;;;;;;;;24.67;60.37;98476.50;591034;240;38534;-74
2022/11/12 08:15:00;;;;;;;;;;;;;;;24.68;63.08;98483.48;591031;240;39940;-75
2022/11/12 08:17:46;;;;;;;;;;;;;;;24.66;62.31;98470.28;591031;240;38997;-73
2022/11/12 08:20:32;;;;;;;;;;;;;;;24.67;60.92;98482.68;590973;240;39135;-74
2022/11/12 08:23:18;;;;;;;;;;;;;;;24.67;60.47;98482.68;591011;240;40431;-75
2022/11/12 08:26:05;;;;;;;;;;;;;;;24.69;61.22;98488.61;591064;240;40237;-74
2022/11/12 08:28:50;;;;;;;;;;;;;;;24.69;60.61;98490.47;591062;240;41115;-74
2022/11/12 08:31:36;;;;;;;;;;;;;;;24.69;60.36;98490.47;591045;240;41837;-75
2022/11/12 08:34:22;;;;;;;;;;;;;;;24.70;60.14;98497.48;590955;240;40191;-75
2022/11/12 08:37:08;;;;;;;;;;;;;;;24.71;62.02;98501.78;591004;240;38993;-69
2022/11/12 08:39:53;;;;;;;;;;;;;;;24.71;60.58;98515.22;591023;240;41972;-68
2022/11/12 08:42:39;;;;;;;;;;;;;;;24.71;59.15;98526.78;590722;240;40337;-69
2022/11/12 08:45:25;;;;;;;;;;;;;;;24.71;61.77;98529.47;587996;240;39286;-68
2022/11/12 08:48:13;;;;;;;;;;;;;;;24.71;61.53;98526.78;587242;241;40389;-69
2022/11/12 08:51:00;;;;;;;;;;;;;;;24.72;59.22;98532.98;587246;241;40408;-68
2022/11/12 08:53:45;;;;;;;;;;;;;;;24.73;62.01;98534.59;587281;241;39051;-68
2022/11/12 08:56:32;;;;;;;;;;;;;;;24.73;59.86;98531.91;587303;241;43425;-68
2022/11/12 08:59:18;;;;;;;;;;;;;;;24.73;60.90;98527.33;587309;241;40412;-69
2022/11/12 09:02:05;;;;;;;;;;;;;;;24.74;60.63;98520.88;587278;241;41337;-69
2022/11/12 09:04:51;;;;;;;;;;;;;;;24.75;60.91;98514.45;587250;241;40319;-69
2022/11/12 09:07:36;;;;;;;;;;;;;;;24.76;60.99;98507.99;587279;239;44643;-68
2022/11/12 09:10:22;;;;;;;;;;;;;;;24.76;60.93;98513.38;587254;241;39175;-68
2022/11/12 09:13:08;;;;;;;;;;;;;;;24.77;59.87;98511.48;587249;241;40297;-68
2022/11/12 09:15:54;;;;;;;;;;;;;;;24.77;59.84;98509.63;587118;241;40638;-67
2022/11/12 09:18:39;;;;;;;;;;;;;;;24.77;59.99;98509.63;587220;241;40204;-71
2022/11/12 09:21:25;;;;;;;;;;;;;;;24.78;59.99;98508.55;587261;241;39367;-71
2022/11/12 09:24:10;;;;;;;;;;;;;;;24.75;53.21;98505.58;586680;241;44360;-75
2022/11/12 09:26:56;;;;;;;;;;;;;;;24.81;59.45;98515.29;586492;241;41167;-75
2022/11/12 09:29:42;;;;;;;;;;;;;;;24.80;59.62;98519.86;586681;241;40439;-75
2022/11/12 09:32:28;;;;;;;;;;;;;;;24.81;60.52;98520.67;586865;241;40311;-74
2022/11/12 09:35:13;;;;;;;;;;;;;;;24.82;59.42;98524.97;586933;241;44299;-74
2022/11/12 09:37:59;;;;;;;;;;;;;;;24.83;60.98;98523.91;587177;241;43270;-74
2022/11/12 09:40:46;;;;;;;;;;;;;;;24.82;61.26;98524.97;587245;241;44411;-74
2022/11/12 09:43:33;;;;;;;;;;;;;;;24.82;59.76;98516.90;589508;240;39489;-74
2022/11/12 09:46:20;;;;;;;;;;;;;;;24.84;60.59;98509.39;591424;240;40757;-74
2022/11/12 09:49:13;;;;;;;;;;;;;;;24.84;59.97;98514.77;590945;240;40306;-73
2022/11/12 09:52:04;;;;;;;;;;;;;;;24.85;59.24;98515.57;590979;240;39196;-74
2022/11/12 09:54:51;;;;;;;;;;;;;;;24.85;59.07;98521.75;590953;240;40459;-73
2022/11/12 09:57:37;;;;;;;;;;;;;;;24.85;59.48;98521.75;591001;240;44515;-74
2022/11/12 10:00:22;;;;;;;;;;;;;;;24.86;60.00;98518.02;590976;240;39167;-75
2022/11/12 10:03:17;;;;;;;;;;;;;;;24.87;61.22;98508.06;590247;240;43660;-75
2022/11/12 10:06:04;;;;;;;;;;;;;;;24.89;62.24;98508.62;590932;240;44362;-74
2022/11/12 10:08:51;;;;;;;;;;;;;;;24.87;60.70;98511.55;590983;240;39064;-75
2022/11/12 10:16:41;;;;;;;;;;;;;;;24.90;59.61;98512.91;589896;240;44472;-74
2022/11/12 10:17:48;;;;;;;;;;;;;;;24.90;60.92;98496.78;590094;240;39114;-74
2022/11/12 10:20:41;;;;;;;;;;;;;;;24.90;60.53;98508.34;590987;240;42136;-74
2022/11/12 10:23:28;;;;;;;;;;;;;;;24.90;60.74;98504.84;590968;240;44385;-74
2022/11/12 10:26:15;;;;;;;;;;;;;;;24.90;60.67;98502.96;590963;240;39180;-74
2022/11/12 10:29:02;;;;;;;;;;;;;;;24.90;61.38;98508.34;591009;240;41853;-74
2022/11/12 10:31:48;;;;;;;;;;;;;;;24.90;60.16;98508.34;590951;240;40171;-74
2022/11/12 10:34:34;;;;;;;;;;;;;;;24.92;60.98;98508.09;590845;240;39044;-67
2022/11/12 10:37:22;;;;;;;;;;;;;;;24.92;61.37;98502.72;589774;240;44531;-68
2022/11/12 10:40:22;;;;;;;;;;;;;;;24.94;59.57;98498.70;589926;240;44808;-68
2022/11/12 10:43:18;;;;;;;;;;;;;;;24.94;58.15;98498.70;590021;240;39173;-68
2022/11/12 10:46:07;;;;;;;;;;;;;;;24.96;60.55;98509.18;590043;240;44895;-68
2022/11/12 10:48:56;;;;;;;;;;;;;;;24.95;60.78;98508.38;590393;240;40332;-68
2022/11/12 10:51:43;;;;;;;;;;;;;;;24.94;60.88;98504.08;590885;240;41165;-68
2022/11/12 10:54:38;;;;;;;;;;;;;;;24.96;60.75;98511.87;590444;240;40417;-68
2022/11/12 10:57:25;;;;;;;;;;;;;;;24.94;58.87;98506.77;590915;240;40395;-68
2022/11/12 11:00:17;;;;;;;;;;;;;;;24.97;59.96;98508.93;590966;240;38777;-68
2022/11/12 11:03:04;;;;;;;;;;;;;;;24.96;60.50;98510.02;590962;240;44209;-68
2022/11/12 11:05:54;;;;;;;;;;;;;;;24.97;60.75;98510.81;590965;240;44491;-68
2022/11/12 11:08:43;;;;;;;;;;;;;;;24.97;59.64;98502.75;590961;240;39310;-67
2022/11/12 11:11:29;;;;;;;;;;;;;;;24.97;61.27;98500.06;589837;240;42071;-68
2022/11/12 11:14:19;;;;;;;;;;;;;;;24.98;61.97;98502.47;590069;240;41790;-67
2022/11/12 11:17:08;;;;;;;;;;;;;;;24.99;59.61;98504.11;590965;240;41214;-68
2022/11/12 11:19:54;;;;;;;;;;;;;;;25.01;62.35;98503.83;590935;240;40439;-68
2022/11/12 11:22:45;;;;;;;;;;;;;;;25.00;59.93;98503.03;590998;240;40307;-68
2022/11/12 11:25:32;;;;;;;;;;;;;;;25.02;59.73;98500.89;590004;240;39207;-69
2022/11/12 11:28:22;;;;;;;;;;;;;;;25.03;61.10;98494.43;590593;240;40401;-69
2022/11/12 11:31:25;;;;;;;;;;;;;;;25.04;58.78;98492.55;590965;240;40336;-68
2022/11/12 11:34:16;;;;;;;;;;;;;;;25.07;61.06;98492.02;590994;240;40966;-68
2022/11/12 11:37:16;;;;;;;;;;;;;;;25.06;61.24;98495.79;590982;240;40368;-67
2022/11/12 11:40:12;;;;;;;;;;;;;;;25.09;59.44;98491.77;590980;240;44464;-67
2022/11/12 11:43:02;;;;;;;;;;;;;;;25.10;59.89;98488.83;590934;240;39179;-67
2022/11/12 11:45:49;;;;;;;;;;;;;;;25.11;59.42;98484.25;591008;240;44930;-68
2022/11/12 11:48:42;;;;;;;;;;;;;;;25.15;58.26;98488.05;579310;244;40450;-74
2022/11/12 11:51:36;;;;;;;;;;;;;;;25.17;57.74;98485.92;590950;238;40019;-74
2022/11/12 11:54:26;;;;;;;;;;;;;;;25.17;58.70;98475.95;591007;240;40319;-73
2022/11/12 11:57:13;;;;;;;;;;;;;;;25.20;58.40;98477.31;591014;240;41644;-74
2022/11/12 12:00:00;;;;;;;;;;;;;;;25.21;59.21;98479.76;591003;240;39136;-75
2022/11/12 12:02:48;;;;;;;;;;;;;;;25.23;58.25;98480.28;591042;240;40554;-74
2022/11/12 12:05:41;;;;;;;;;;;;;;;25.23;56.13;98474.90;590944;240;44940;-74
2022/11/12 12:08:34;;;;;;;;;;;;;;;25.28;54.79;98476.01;591005;240;39109;-74
2022/11/12 12:11:25;;;;;;;;;;;;;;;25.30;55.71;98480.05;590609;240;41770;-75
2022/11/12 12:14:27;;;;;;;;;;;;;;;25.30;56.91;98474.67;590974;240;41992;-75
2022/11/12 12:17:23;;;;;;;;;;;;;;;25.32;58.22;98477.08;590982;240;39873;-75
2022/11/12 12:20:29;;;;;;;;;;;;;;;25.32;58.36;98469.01;590492;240;43690;-74
2022/11/12 12:23:28;;;;;;;;;;;;;;;25.32;59.37;98480.61;590958;240;40416;-74
2022/11/12 12:26:15;;;;;;;;;;;;;;;25.34;55.54;98475.75;591010;240;39838;-73
2022/11/12 12:29:02;;;;;;;;;;;;;;;25.35;54.25;98480.08;590966;240;43072;-74
2022/11/12 12:31:49;;;;;;;;;;;;;;;25.36;54.43;98483.57;590990;240;40309;-74
2022/11/12 12:34:36;;;;;;;;;;;;;;;25.37;53.56;98480.62;590972;240;39434;-73
2022/11/12 12:37:36;;;;;;;;;;;;;;;25.38;54.54;98474.16;590975;240;40737;-75
2022/11/12 12:40:39;;;;;;;;;;;;;;;25.38;58.13;98466.09;584182;240;40468;-75
2022/11/12 12:43:29;;;;;;;;;;;;;;;25.39;55.08;98461.51;589626;240;39246;-75
2022/11/12 12:46:16;;;;;;;;;;;;;;;25.39;54.77;98462.31;587262;241;44663;-74
2022/11/12 12:49:04;;;;;;;;;;;;;;;25.40;57.39;98461.25;587250;241;40432;-76
2022/11/12 12:51:50;;;;;;;;;;;;;;;25.40;56.22;98447.80;587284;241;42448;-76
2022/11/12 12:54:37;;;;;;;;;;;;;;;25.41;55.48;98446.72;587350;241;44210;-75
2022/11/12 12:57:28;;;;;;;;;;;;;;;25.41;57.91;98438.64;587341;241;39276;-76
2022/11/12 13:00:31;;;;;;;;;;;;;;;25.41;55.25;98427.08;587281;241;38878;-76
2022/11/12 13:03:35;;;;;;;;;;;;;;;25.42;53.65;98436.75;587256;241;40034;-69
2022/11/12 13:06:24;;;;;;;;;;;;;;;25.43;59.67;98433.81;587304;241;40199;-69
2022/11/12 13:09:15;;;;;;;;;;;;;;;25.44;56.63;98448.06;587290;241;38870;-67
2022/11/12 13:14:53;;;;;;;;;;;;;;;25.42;57.29;98451.02;587296;241;39095;-69
2022/11/12 13:17:43;;;;;;;;;;;;;;;25.42;55.83;98459.09;587284;241;38748;-68
2022/11/12 13:20:33;;;;;;;;;;;;;;;25.43;56.40;98454.54;587159;241;44628;-68
2022/11/12 13:24:04;;;;;;;;;;;;;;;25.42;55.92;98451.02;587196;241;40070;-67
2022/11/12 13:26:41;;;;;;;;;;;;;;;25.45;59.08;98449.67;587217;241;39124;-66
2022/11/12 13:29:31;;;;;;;;;;;;;;;25.43;52.59;98451.84;587268;241;40302;-68
2022/11/12 13:32:33;;;;;;;;;;;;;;;25.41;57.91;98437.84;587220;241;44911;-68
2022/11/12 13:35:20;;;;;;;;;;;;;;;25.38;56.12;98449.14;587232;241;39109;-68
2022/11/12 13:38:18;;;;;;;;;;;;;;;25.36;57.93;98454.77;587259;239;40315;-67
2022/11/12 13:41:18;;;;;;;;;;;;;;;25.36;54.09;98468.23;587253;241;42009;-66
2022/11/12 13:44:08;;;;;;;;;;;;;;;25.39;54.95;98478.45;587210;240;39378;-67
2022/11/12 13:46:54;;;;;;;;;;;;;;;25.40;54.77;98473.88;587243;241;44790;-67
2022/11/12 13:49:41;;;;;;;;;;;;;;;25.39;53.93;98483.84;587239;241;43240;-68
2022/11/12 13:52:28;;;;;;;;;;;;;;;25.39;54.99;98477.66;587331;241;38819;-68
2022/11/12 13:55:15;;;;;;;;;;;;;;;25.44;53.30;98470.41;587175;241;44354;-67
2022/11/12 13:58:01;;;;;;;;;;;;;;;25.43;56.48;98467.99;587198;241;44377;-69
2022/11/12 14:00:54;;;;;;;;;;;;;;;25.41;52.75;98470.13;587202;241;39649;-66
2022/11/12 14:03:48;;;;;;;;;;;;;;;25.45;55.54;98465.83;587188;241;40667;-68
2022/11/12 14:06:38;;;;;;;;;;;;;;;25.42;54.25;98466.36;586508;239;40419;-68
2022/11/12 14:09:25;;;;;;;;;;;;;;;25.43;52.85;98468.80;587267;241;39132;-68
2022/11/12 14:12:12;;;;;;;;;;;;;;;25.43;56.20;98467.99;587261;241;43197;-68
2022/11/12 14:15:02;;;;;;;;;;;;;;;25.43;55.49;98463.41;586984;241;40398;-68
2022/11/12 14:17:49;;;;;;;;;;;;;;;25.41;57.84;98473.62;587266;241;39122;-68
2022/11/12 14:20:37;;;;;;;;;;;;;;;25.44;56.04;98466.91;587279;241;40335;-68
2022/11/12 14:23:23;;;;;;;;;;;;;;;25.42;53.46;98461.78;587236;241;41895;-68
2022/11/12 14:26:10;;;;;;;;;;;;;;;25.44;55.38;98453.45;587299;241;39062;-68
2022/11/12 14:28:56;;;;;;;;;;;;;;;25.44;55.91;98435.41;587281;241;40560;-68
2022/11/12 14:31:41;;;;;;;;;;;;;;;25.44;53.78;98421.95;587251;239;40462;-68
2022/11/12 14:34:28;;;;;;;;;;;;;;;25.46;57.08;98427.89;587261;241;39065;-68
2022/11/12 14:37:24;;;;;;;;;;;;;;;25.46;56.23;98435.16;587252;241;40410;-68
2022/11/12 14:40:12;;;;;;;;;;;;;;;25.46;54.38;98435.97;587242;241;44497;-72
2022/11/12 14:42:58;;;;;;;;;;;;;;;25.49;54.60;98436.52;588490;240;39211;-73
2022/11/12 14:45:44;;;;;;;;;;;;;;;25.50;54.85;98435.43;591618;240;43588;-72
2022/11/12 14:48:31;;;;;;;;;;;;;;;25.52;53.17;98449.44;591620;240;44215;-69
2022/11/12 14:51:17;;;;;;;;;;;;;;;25.54;54.47;98453.48;591217;240;41057;-68
2022/11/12 14:54:04;;;;;;;;;;;;;;;25.54;55.17;98463.45;590968;240;44540;-68
2022/11/12 14:56:50;;;;;;;;;;;;;;;25.55;54.94;98462.36;590950;240;44720;-69
2022/11/12 14:59:36;;;;;;;;;;;;;;;25.56;55.43;98461.27;590947;238;39196;-67
2022/11/12 15:02:31;;;;;;;;;;;;;;;25.57;56.65;98468.30;590986;240;40322;-68
2022/11/12 15:05:12;;;;;;;;;;;;;;;25.57;56.77;98458.33;591013;240;40366;-68